createdAt,value
2023-01-31T00:01:28.926Z,2.00
2023-01-31T00:03:58.949Z,2.20
2023-01-31T00:06:28.596Z,1.93
2023-01-31T00:08:57.076Z,2.23
2023-01-31T00:11:28.499Z,2.37
2023-01-31T00:13:56.113Z,2.70
2023-01-31T00:16:24.350Z,2.40
2023-01-31T00:18:51.987Z,2.07
2023-01-31T00:21:20.898Z,2.23
2023-01-31T00:23:49.657Z,3.17
2023-01-31T00:26:19.079Z,2.67
2023-01-31T00:28:49.723Z,3.07
2023-01-31T00:31:21.056Z,2.77
2023-01-31T00:33:51.162Z,2.53
2023-01-31T00:36:20.804Z,2.40
2023-01-31T00:38:50.111Z,3.00
2023-01-31T00:41:18.864Z,2.17
2023-01-31T00:43:47.845Z,3.20
2023-01-31T00:46:15.510Z,2.13
2023-01-31T00:48:43.751Z,2.70
2023-01-31T00:51:11.306Z,1.90
2023-01-31T00:53:39.546Z,2.77
2023-01-31T00:56:09.491Z,2.90
2023-01-31T00:58:39.498Z,4.20
2023-01-31T01:01:10.532Z,2.43
2023-01-31T01:03:39.368Z,1.50
2023-01-31T01:06:08.257Z,1.83
2023-01-31T01:08:37.181Z,2.20
2023-01-31T01:11:08.749Z,2.47
2023-01-31T01:13:37.192Z,1.97
2023-01-31T01:16:07.071Z,1.73
2023-01-31T01:18:36.295Z,1.20
2023-01-31T01:21:10.099Z,2.30
2023-01-31T01:23:41.787Z,1.57
2023-01-31T01:26:15.117Z,2.23
2023-01-31T01:28:43.044Z,1.40
2023-01-31T01:31:12.407Z,2.80
2023-01-31T01:33:43.555Z,2.43
2023-01-31T01:36:16.075Z,3.27
2023-01-31T01:38:44.703Z,1.57
2023-01-31T01:41:13.515Z,2.47
2023-01-31T01:43:43.227Z,2.77
2023-01-31T01:46:14.885Z,2.63
2023-01-31T01:48:47.301Z,2.90
2023-01-31T01:51:19.297Z,3.17
2023-01-31T01:53:51.137Z,2.07
2023-01-31T01:56:22.580Z,2.10
2023-01-31T01:58:58.177Z,3.50
2023-01-31T02:01:30.104Z,3.17
2023-01-31T02:03:59.077Z,2.00
2023-01-31T02:06:26.929Z,1.90
2023-01-31T02:08:55.833Z,2.47
2023-01-31T02:11:25.286Z,2.93
2023-01-31T02:13:57.219Z,2.53
2023-01-31T02:16:24.944Z,1.90
2023-01-31T02:18:53.630Z,2.40
2023-01-31T02:21:58.503Z,2.00
2023-01-31T02:25:12.121Z,2.00
2023-01-31T02:27:59.503Z,2.10
2023-01-31T02:30:43.786Z,2.10
2023-01-31T02:33:23.691Z,1.80
2023-01-31T02:36:03.121Z,2.50
2023-01-31T02:38:42.891Z,2.07
2023-01-31T02:41:18.808Z,2.03
2023-01-31T02:44:11.908Z,1.57
2023-01-31T02:46:48.365Z,2.23
2023-01-31T02:49:35.357Z,1.70
2023-01-31T02:52:21.674Z,1.93
2023-01-31T02:55:20.915Z,1.90
2023-01-31T02:57:51.956Z,2.17
2023-01-31T03:00:21.928Z,2.20
2023-01-31T03:02:49.785Z,4.60
2023-01-31T03:05:21.119Z,2.07
2023-01-31T03:07:53.021Z,2.27
2023-01-31T03:10:32.187Z,2.47
2023-01-31T03:13:12.913Z,2.03
2023-01-31T03:16:14.138Z,2.47
2023-01-31T03:18:48.633Z,1.83
2023-01-31T03:21:22.484Z,1.87
2023-01-31T03:23:54.817Z,2.70
2023-01-31T03:26:23.708Z,4.10
2023-01-31T03:28:57.067Z,2.70
2023-01-31T03:31:27.954Z,2.70
2023-01-31T03:33:58.858Z,2.70
2023-01-31T03:36:34.686Z,2.70
2023-01-31T03:39:19.646Z,2.07
2023-01-31T03:41:57.474Z,1.80
2023-01-31T03:44:36.831Z,2.07
2023-01-31T03:47:10.423Z,1.60
2023-01-31T03:49:41.795Z,3.30
2023-01-31T03:52:16.317Z,2.67
2023-01-31T03:54:49.011Z,2.30
2023-01-31T03:57:19.197Z,2.33
2023-01-31T03:59:53.872Z,2.90
2023-01-31T04:02:24.655Z,2.57
2023-01-31T04:04:56.836Z,2.23
2023-01-31T04:07:26.160Z,2.13
2023-01-31T04:09:53.801Z,2.03
2023-01-31T04:12:21.835Z,1.70
2023-01-31T04:14:49.302Z,2.03
2023-01-31T04:17:16.843Z,3.30
2023-01-31T04:19:44.419Z,1.93
2023-01-31T04:22:11.936Z,2.13
2023-01-31T04:24:40.930Z,3.90
2023-01-31T04:27:08.446Z,2.27
2023-01-31T04:29:35.946Z,2.00
2023-01-31T04:32:03.514Z,2.37
2023-01-31T04:34:30.987Z,2.30
2023-01-31T04:36:58.498Z,2.10
2023-01-31T04:39:26.123Z,2.27
2023-01-31T04:41:55.097Z,1.57
2023-01-31T04:44:22.597Z,1.83
2023-01-31T04:46:50.082Z,2.10
2023-01-31T04:49:17.574Z,1.37
2023-01-31T04:51:45.034Z,2.47
2023-01-31T04:54:12.633Z,1.67
2023-01-31T04:56:40.125Z,2.30
2023-01-31T04:59:08.963Z,1.60
2023-01-31T05:01:36.433Z,1.90
2023-01-31T05:04:03.945Z,1.77
2023-01-31T05:06:31.566Z,2.17
2023-01-31T05:09:01.595Z,1.80
2023-01-31T05:11:29.456Z,3.33
2023-01-31T05:13:57.050Z,2.63
2023-01-31T05:16:26.039Z,2.77
2023-01-31T05:18:53.539Z,1.40
2023-01-31T05:21:21.046Z,1.67
2023-01-31T05:23:48.592Z,2.40
2023-01-31T05:26:16.273Z,1.80
2023-01-31T05:28:43.844Z,2.43
2023-01-31T05:31:13.143Z,1.87
2023-01-31T05:33:42.177Z,2.10
2023-01-31T05:36:10.131Z,2.47
2023-01-31T05:38:37.587Z,2.27
2023-01-31T05:41:05.326Z,2.40
2023-01-31T05:43:34.429Z,2.50
2023-01-31T05:46:03.006Z,2.20
2023-01-31T05:48:31.086Z,2.57
2023-01-31T05:50:59.912Z,3.20
2023-01-31T05:53:27.376Z,2.07
2023-01-31T05:55:54.897Z,2.37
2023-01-31T05:58:22.353Z,3.07
2023-01-31T06:00:49.844Z,2.37
2023-01-31T06:03:17.361Z,2.73
2023-01-31T06:05:45.040Z,4.20
2023-01-31T06:08:13.938Z,2.47
2023-01-31T06:10:41.445Z,2.63
2023-01-31T06:13:08.900Z,1.70
2023-01-31T06:15:37.691Z,2.23
2023-01-31T06:18:05.709Z,2.00
2023-01-31T06:20:33.323Z,2.37
2023-01-31T06:23:01.404Z,1.80
2023-01-31T06:25:31.044Z,2.53
2023-01-31T06:27:59.325Z,2.80
2023-01-31T06:30:27.137Z,2.63
2023-01-31T06:32:54.676Z,2.97
2023-01-31T06:35:22.633Z,2.03
2023-01-31T06:37:50.251Z,2.10
2023-01-31T06:40:20.043Z,2.73
2023-01-31T06:42:50.978Z,3.23
2023-01-31T06:45:19.014Z,2.43
2023-01-31T06:47:47.192Z,2.33
2023-01-31T06:50:15.143Z,2.33
2023-01-31T06:52:42.643Z,1.87
2023-01-31T06:55:10.729Z,2.43
2023-01-31T06:57:46.109Z,2.60
2023-01-31T07:00:18.327Z,2.70
2023-01-31T07:02:45.995Z,2.60
2023-01-31T07:05:13.900Z,1.80
2023-01-31T07:07:41.818Z,3.60
2023-01-31T07:10:10.882Z,3.70
2023-01-31T07:12:38.376Z,2.77
2023-01-31T07:15:06.958Z,2.13
2023-01-31T07:17:35.956Z,2.63
2023-01-31T07:20:03.591Z,2.93
2023-01-31T07:22:31.164Z,5.50
2023-01-31T07:24:58.645Z,3.60
2023-01-31T07:27:26.158Z,3.33
2023-01-31T07:29:53.880Z,4.10
2023-01-31T07:32:21.387Z,4.07
2023-01-31T07:34:50.167Z,3.57
2023-01-31T07:37:17.729Z,5.27
2023-01-31T07:39:45.168Z,5.30
2023-01-31T07:42:12.671Z,3.10
2023-01-31T07:44:40.140Z,4.17
2023-01-31T07:47:07.658Z,5.13
2023-01-31T07:49:35.385Z,4.10
2023-01-31T07:52:04.402Z,4.20
2023-01-31T07:54:32.095Z,4.60
2023-01-31T07:56:59.621Z,4.00
2023-01-31T07:59:27.108Z,4.23
2023-01-31T08:02:23.743Z,5.80
2023-01-31T08:04:51.311Z,5.10
2023-01-31T08:07:20.168Z,4.50
2023-01-31T08:09:49.746Z,5.00
2023-01-31T08:12:17.502Z,3.97
2023-01-31T08:14:45.424Z,4.17
2023-01-31T08:17:13.037Z,4.40
2023-01-31T08:19:40.563Z,5.70
2023-01-31T08:22:08.024Z,4.83
2023-01-31T08:24:37.255Z,5.00
2023-01-31T08:27:05.048Z,4.70
2023-01-31T08:29:32.897Z,6.37
2023-01-31T08:32:00.754Z,3.97
2023-01-31T08:34:28.410Z,5.83
2023-01-31T08:36:55.927Z,3.77
2023-01-31T08:39:23.407Z,3.90
2023-01-31T08:41:52.621Z,4.57
2023-01-31T08:44:20.254Z,3.90
2023-01-31T08:46:47.788Z,6.07
2023-01-31T08:49:15.497Z,5.80
2023-01-31T08:51:43.099Z,4.47
2023-01-31T08:54:12.760Z,4.70
2023-01-31T08:56:40.875Z,5.30
2023-01-31T08:59:12.995Z,7.10
2023-01-31T09:01:42.310Z,7.73
2023-01-31T09:04:09.836Z,7.50
2023-01-31T09:06:37.513Z,8.67
2023-01-31T09:09:05.260Z,6.87
2023-01-31T09:11:33.629Z,8.40
2023-01-31T09:14:01.115Z,8.27
2023-01-31T09:16:30.083Z,5.60
2023-01-31T09:18:57.782Z,7.53
2023-01-31T09:21:25.843Z,8.27
2023-01-31T09:23:59.929Z,7.20
2023-01-31T09:26:27.640Z,8.27
2023-01-31T09:28:56.042Z,7.37
2023-01-31T09:31:23.679Z,7.63
2023-01-31T09:33:52.547Z,7.47
2023-01-31T09:36:22.366Z,5.67
2023-01-31T09:38:49.952Z,6.67
2023-01-31T09:41:24.646Z,7.10
2023-01-31T09:43:57.111Z,7.00
2023-01-31T09:46:32.124Z,6.80
2023-01-31T09:49:05.887Z,5.20
2023-01-31T09:51:35.057Z,7.63
2023-01-31T09:54:05.074Z,6.50
2023-01-31T09:56:40.474Z,7.27
2023-01-31T09:59:21.394Z,6.30
2023-01-31T10:01:59.121Z,8.57
2023-01-31T10:04:58.713Z,7.30
2023-01-31T10:07:30.632Z,7.10
2023-01-31T10:10:07.508Z,7.03
2023-01-31T10:12:40.720Z,6.77
2023-01-31T10:15:15.812Z,6.53
2023-01-31T10:17:48.010Z,7.17
2023-01-31T10:20:22.109Z,6.57
2023-01-31T10:22:55.993Z,7.03
2023-01-31T10:25:28.132Z,5.97
2023-01-31T10:28:02.059Z,6.70
2023-01-31T10:30:38.824Z,7.37
2023-01-31T10:33:16.460Z,6.70
2023-01-31T10:35:46.461Z,7.90
2023-01-31T10:38:20.239Z,6.00
2023-01-31T10:40:52.251Z,6.70
2023-01-31T10:43:32.918Z,5.80
2023-01-31T10:46:01.619Z,4.93
2023-01-31T10:48:30.276Z,6.40
2023-01-31T10:51:08.951Z,5.23
2023-01-31T10:53:51.603Z,4.43
2023-01-31T10:56:27.841Z,5.07
2023-01-31T10:58:58.344Z,6.40
2023-01-31T11:01:27.018Z,5.20
2023-01-31T11:03:57.433Z,5.07
2023-01-31T11:06:26.264Z,5.63
2023-01-31T11:08:57.536Z,6.27
2023-01-31T11:11:27.931Z,7.43
2023-01-31T11:14:01.575Z,7.10
2023-01-31T11:16:32.166Z,7.40
2023-01-31T11:19:02.427Z,6.43
2023-01-31T11:21:34.457Z,7.07
2023-01-31T11:24:05.736Z,5.47
2023-01-31T11:26:37.675Z,6.27
2023-01-31T11:29:11.631Z,5.60
2023-01-31T11:31:42.671Z,8.13
2023-01-31T11:34:22.230Z,6.47
2023-01-31T11:36:51.863Z,6.17
2023-01-31T11:39:27.656Z,7.60
2023-01-31T11:41:55.360Z,6.47
2023-01-31T11:44:24.301Z,6.60
2023-01-31T11:46:54.422Z,6.13
2023-01-31T11:49:28.474Z,6.57
2023-01-31T11:51:58.771Z,6.80
2023-01-31T11:54:29.433Z,5.17
2023-01-31T11:56:57.154Z,6.40
2023-01-31T11:59:29.888Z,6.43
2023-01-31T12:02:00.753Z,7.40
2023-01-31T12:04:33.728Z,7.90
2023-01-31T12:07:05.897Z,6.40
2023-01-31T12:09:43.699Z,6.33
2023-01-31T12:12:31.126Z,5.93
2023-01-31T12:15:02.201Z,5.90
2023-01-31T12:17:32.091Z,6.77
2023-01-31T12:20:28.045Z,7.80
2023-01-31T12:23:07.073Z,6.20
2023-01-31T12:25:52.912Z,8.20
2023-01-31T12:28:34.559Z,8.07
2023-01-31T12:31:11.642Z,7.70
2023-01-31T12:33:53.256Z,5.27
2023-01-31T12:36:35.267Z,7.63
2023-01-31T12:39:16.050Z,7.63
2023-01-31T12:41:55.051Z,5.97
2023-01-31T12:44:40.115Z,7.57
2023-01-31T12:47:23.546Z,7.70
2023-01-31T12:50:17.880Z,7.17
2023-01-31T12:52:54.028Z,7.07
2023-01-31T12:55:32.886Z,6.10
2023-01-31T12:58:19.623Z,7.53
2023-01-31T13:00:56.279Z,8.30
2023-01-31T13:03:36.987Z,7.60
2023-01-31T13:06:15.022Z,6.33
2023-01-31T13:09:01.601Z,7.17
2023-01-31T13:11:39.835Z,7.07
2023-01-31T13:14:15.830Z,8.20
2023-01-31T13:16:46.554Z,7.10
2023-01-31T13:19:19.057Z,8.57
2023-01-31T13:21:49.935Z,16.27
2023-01-31T13:24:21.490Z,10.40
2023-01-31T13:26:53.932Z,9.67
2023-01-31T13:29:26.353Z,8.40
2023-01-31T13:32:00.575Z,7.23
2023-01-31T13:34:32.718Z,7.27
2023-01-31T13:37:04.303Z,6.10
2023-01-31T13:39:37.474Z,7.53
2023-01-31T13:42:06.794Z,6.50
2023-01-31T13:44:34.575Z,7.70
2023-01-31T13:47:06.735Z,9.03
2023-01-31T13:49:39.548Z,7.67
2023-01-31T13:52:15.512Z,7.40
2023-01-31T13:54:48.775Z,6.70
2023-01-31T13:57:26.108Z,8.13
2023-01-31T13:59:57.063Z,7.87
2023-01-31T14:02:24.681Z,8.20
2023-01-31T14:04:52.208Z,9.17
2023-01-31T14:07:22.792Z,8.00
2023-01-31T14:10:29.334Z,7.13
2023-01-31T14:13:27.582Z,7.77
2023-01-31T14:15:56.582Z,7.10
2023-01-31T14:18:37.652Z,6.63
2023-01-31T14:21:54.277Z,8.63
2023-01-31T14:25:06.573Z,8.87
2023-01-31T14:27:46.622Z,6.27
2023-01-31T14:30:42.623Z,6.07
2023-01-31T14:33:20.540Z,6.57
2023-01-31T14:36:15.005Z,6.77
2023-01-31T14:39:04.944Z,6.60
2023-01-31T14:41:48.442Z,6.80
2023-01-31T14:44:30.424Z,6.83
2023-01-31T14:47:11.546Z,5.47
2023-01-31T14:50:05.970Z,6.40
2023-01-31T14:52:47.093Z,5.97
2023-01-31T14:55:39.367Z,6.57
2023-01-31T14:58:15.051Z,6.07
2023-01-31T15:00:50.368Z,5.23
2023-01-31T15:03:22.513Z,6.00
2023-01-31T15:05:52.607Z,6.00
2023-01-31T15:08:45.111Z,6.20
2023-01-31T15:11:42.022Z,6.10
2023-01-31T15:14:34.607Z,5.63
2023-01-31T15:17:07.072Z,5.27
2023-01-31T15:19:45.161Z,6.03
2023-01-31T15:22:14.313Z,5.50
2023-01-31T15:24:47.408Z,5.53
2023-01-31T15:27:19.823Z,5.13
2023-01-31T15:29:57.302Z,5.60
2023-01-31T15:32:28.378Z,5.40
2023-01-31T15:35:05.257Z,5.47
2023-01-31T15:37:35.780Z,5.73
2023-01-31T15:40:07.901Z,6.67
2023-01-31T15:42:35.487Z,5.13
2023-01-31T15:45:21.528Z,6.23
2023-01-31T15:47:57.294Z,6.03
2023-01-31T15:50:27.268Z,7.83
2023-01-31T15:52:56.568Z,6.70
2023-01-31T15:56:31.586Z,6.13
2023-01-31T16:03:01.336Z,7.33
2023-01-31T16:05:32.774Z,8.43
2023-01-31T16:08:01.421Z,7.97
2023-01-31T16:10:30.986Z,6.33
2023-01-31T16:13:00.020Z,7.20
2023-01-31T16:15:30.010Z,6.03
2023-01-31T16:18:02.015Z,7.20
2023-01-31T16:20:43.384Z,7.37
2023-01-31T16:23:31.676Z,6.50
2023-01-31T16:26:04.517Z,5.93
2023-01-31T16:28:38.650Z,4.67
2023-01-31T16:35:01.969Z,3.77
2023-01-31T16:37:34.830Z,4.33
2023-01-31T16:40:08.067Z,3.40
2023-01-31T16:42:38.673Z,2.60
2023-01-31T16:45:28.843Z,3.87
2023-01-31T16:47:56.681Z,3.50
2023-01-31T16:54:30.689Z,3.13
2023-01-31T16:57:20.594Z,2.20
2023-01-31T16:59:52.368Z,2.00
2023-01-31T17:02:24.884Z,1.77
2023-01-31T17:04:56.225Z,2.80
2023-01-31T17:07:25.953Z,3.00
2023-01-31T17:10:00.408Z,3.20
2023-01-31T17:12:30.436Z,1.87
2023-01-31T17:15:02.428Z,2.40
2023-01-31T17:17:32.775Z,2.50
2023-01-31T17:20:00.785Z,2.13
2023-01-31T17:22:28.381Z,1.97
2023-01-31T17:24:57.189Z,2.13
2023-01-31T17:27:25.045Z,3.67
2023-01-31T17:29:52.547Z,2.93
2023-01-31T17:32:21.656Z,1.83
2023-01-31T17:34:49.417Z,2.27
2023-01-31T17:37:20.758Z,2.07
2023-01-31T17:39:51.262Z,1.57
2023-01-31T17:42:22.157Z,1.73
2023-01-31T17:44:49.602Z,2.67
2023-01-31T17:47:18.368Z,1.63
2023-01-31T17:49:45.834Z,2.43
2023-01-31T17:52:13.458Z,2.10
2023-01-31T17:54:40.989Z,2.30
2023-01-31T17:57:08.522Z,1.70
2023-01-31T17:59:37.313Z,3.10
2023-01-31T18:02:04.971Z,3.13
2023-01-31T18:04:32.679Z,2.53
2023-01-31T18:07:00.159Z,2.70
2023-01-31T18:09:27.663Z,3.47
2023-01-31T18:11:55.394Z,4.20
2023-01-31T18:14:22.992Z,3.90
2023-01-31T18:16:53.986Z,3.37
2023-01-31T18:19:21.984Z,2.77
2023-01-31T18:21:54.896Z,2.20
2023-01-31T18:24:23.163Z,3.83
2023-01-31T18:26:50.647Z,2.67
2023-01-31T18:29:20.835Z,2.60
2023-01-31T18:31:49.069Z,2.70
2023-01-31T18:34:18.102Z,2.50
2023-01-31T18:36:45.580Z,2.50
2023-01-31T18:39:13.023Z,3.43
2023-01-31T18:41:40.602Z,2.97
2023-01-31T18:44:08.114Z,2.17
2023-01-31T18:46:35.742Z,3.30
2023-01-31T18:49:03.201Z,2.53
2023-01-31T18:51:32.024Z,2.73
2023-01-31T18:53:59.698Z,2.10
2023-01-31T18:56:27.152Z,2.67
2023-01-31T18:58:54.718Z,2.20
2023-01-31T19:01:23.946Z,1.70
2023-01-31T19:03:53.767Z,2.87
2023-01-31T19:06:23.586Z,2.30
2023-01-31T19:08:54.041Z,2.97
2023-01-31T19:11:23.538Z,2.23
2023-01-31T19:13:51.076Z,2.97
2023-01-31T19:16:20.658Z,2.53
2023-01-31T19:18:48.322Z,2.87
2023-01-31T19:21:17.257Z,2.00
2023-01-31T19:23:45.524Z,2.37
2023-01-31T19:26:16.983Z,1.97
2023-01-31T19:28:45.507Z,2.53
2023-01-31T19:31:15.258Z,2.33
2023-01-31T19:33:42.945Z,2.80
2023-01-31T19:36:11.548Z,2.00
2023-01-31T19:38:39.425Z,2.50
2023-01-31T19:41:08.557Z,2.97
2023-01-31T19:43:37.434Z,3.00
2023-01-31T19:46:06.142Z,2.03
2023-01-31T19:48:33.967Z,2.40
2023-01-31T19:51:07.538Z,2.70
2023-01-31T19:53:35.029Z,3.57
2023-01-31T19:56:02.527Z,3.33
2023-01-31T19:58:31.959Z,2.23
2023-01-31T20:01:02.889Z,2.53
2023-01-31T20:03:30.882Z,2.87
2023-01-31T20:06:02.678Z,2.60
2023-01-31T20:08:30.804Z,3.70
2023-01-31T20:10:58.760Z,2.73
2023-01-31T20:13:26.388Z,2.53
2023-01-31T20:15:58.173Z,2.33
2023-01-31T20:18:27.645Z,2.50
2023-01-31T20:20:55.186Z,2.47
2023-01-31T20:23:22.670Z,3.03
2023-01-31T20:25:50.751Z,2.53
2023-01-31T20:28:19.066Z,2.70
2023-01-31T20:30:47.729Z,3.30
2023-01-31T20:33:16.276Z,3.53
2023-01-31T20:35:45.274Z,2.43
2023-01-31T20:38:15.490Z,2.27
2023-01-31T20:40:45.091Z,3.00
2023-01-31T20:43:12.557Z,2.60
2023-01-31T20:45:40.146Z,2.60
2023-01-31T20:48:08.162Z,2.80
2023-01-31T20:50:35.833Z,3.57
2023-01-31T20:53:05.130Z,3.17
2023-01-31T20:55:32.815Z,3.20
2023-01-31T20:58:00.271Z,2.60
2023-01-31T21:00:28.248Z,2.80
2023-01-31T21:02:55.701Z,3.00
2023-01-31T21:05:24.029Z,2.90
2023-01-31T21:07:52.172Z,3.50
2023-01-31T21:10:21.348Z,3.20
2023-01-31T21:12:49.435Z,4.00
2023-01-31T21:15:17.025Z,1.50
2023-01-31T21:17:44.640Z,2.67
2023-01-31T21:20:13.210Z,3.17
2023-01-31T21:22:41.025Z,2.30
2023-01-31T21:25:11.008Z,2.50
2023-01-31T21:27:39.942Z,3.43
2023-01-31T21:30:08.418Z,3.70
2023-01-31T21:32:36.046Z,2.40
2023-01-31T21:35:04.705Z,2.87
2023-01-31T21:37:32.437Z,1.77
2023-01-31T21:40:01.009Z,3.53
2023-01-31T21:42:27.816Z,2.07
2023-01-31T21:44:56.599Z,3.57
2023-01-31T21:47:24.038Z,3.30
2023-01-31T21:49:51.491Z,2.70
2023-01-31T21:52:19.054Z,2.80
2023-01-31T21:54:46.714Z,3.37
2023-01-31T21:57:14.179Z,2.77
2023-01-31T21:59:43.773Z,2.77
2023-01-31T22:02:13.300Z,2.73
2023-01-31T22:04:40.974Z,2.93
2023-01-31T22:07:09.996Z,2.50
2023-01-31T22:09:37.448Z,3.07
2023-01-31T22:12:07.976Z,2.70
2023-01-31T22:14:35.707Z,2.13
2023-01-31T22:17:03.336Z,3.30
2023-01-31T22:19:32.460Z,2.53
2023-01-31T22:22:00.154Z,3.77
2023-01-31T22:24:27.681Z,2.13
2023-01-31T22:26:56.399Z,2.80
2023-01-31T22:29:23.889Z,2.60
2023-01-31T22:31:54.595Z,2.17
2023-01-31T22:34:22.106Z,2.13
2023-01-31T22:36:51.109Z,1.80
2023-01-31T22:39:18.813Z,2.40
2023-01-31T22:41:46.457Z,3.60
2023-01-31T22:44:13.992Z,3.30
2023-01-31T22:46:41.545Z,2.70
2023-01-31T22:49:09.134Z,2.33
2023-01-31T22:51:36.682Z,3.03
2023-01-31T22:54:05.592Z,2.60
2023-01-31T22:56:33.518Z,2.40
2023-01-31T22:59:03.339Z,2.20
2023-01-31T23:01:34.473Z,2.77
2023-01-31T23:04:04.315Z,2.43
2023-01-31T23:09:30.805Z,3.17
2023-01-31T23:11:58.737Z,2.37
2023-01-31T23:14:26.227Z,2.60
2023-01-31T23:17:11.291Z,5.10
2023-01-31T23:19:38.860Z,2.30
2023-01-31T23:22:06.405Z,2.60
2023-01-31T23:24:36.782Z,3.00
2023-01-31T23:27:06.243Z,2.43
2023-01-31T23:29:33.771Z,2.80
2023-01-31T23:32:01.307Z,2.53
2023-01-31T23:34:30.007Z,2.30
2023-01-31T23:36:57.669Z,2.70
2023-01-31T23:39:25.148Z,2.20
2023-01-31T23:41:53.951Z,3.40
2023-01-31T23:44:21.439Z,2.10
2023-01-31T23:46:49.661Z,2.80
2023-01-31T23:49:17.429Z,3.20
2023-01-31T23:51:45.017Z,2.57
2023-01-31T23:54:12.557Z,2.20
2023-01-31T23:56:40.067Z,2.63
2023-01-31T23:59:12.190Z,2.90
